createdAt,value
2017-11-29T00:00:12.032Z,23.14
2017-11-29T00:00:44.158Z,23.15
2017-11-29T00:01:16.264Z,23.04
2017-11-29T00:01:48.354Z,23.12
2017-11-29T00:02:20.469Z,23.07
2017-11-29T00:04:12.156Z,23.06
2017-11-29T00:07:23.395Z,23.15
2017-11-29T00:09:14.981Z,23.09
2017-11-29T00:09:47.094Z,23.19
2017-11-29T00:11:38.487Z,23.04
2017-11-29T00:12:10.599Z,23.18
2017-11-29T00:14:01.985Z,23.21
2017-11-29T00:14:34.099Z,23.24
2017-11-29T00:16:25.899Z,23.09
2017-11-29T00:16:57.997Z,23.21
2017-11-29T00:17:30.098Z,23.18
2017-11-29T00:18:02.192Z,23.22
2017-11-29T00:18:34.275Z,23.24
2017-11-29T00:20:25.907Z,23.18
2017-11-29T00:22:17.675Z,23.24
2017-11-29T00:22:49.766Z,23.19
2017-11-29T00:24:41.324Z,23.28
2017-11-29T00:25:13.423Z,23.24
2017-11-29T00:25:45.538Z,23.26
2017-11-29T00:26:17.655Z,23.22
2017-11-29T00:26:49.765Z,23.24
2017-11-29T00:27:21.877Z,23.26
2017-11-29T00:27:53.979Z,23.22
2017-11-29T00:28:26.101Z,23.25
2017-11-29T00:28:58.214Z,23.29
2017-11-29T00:29:30.331Z,23.24
2017-11-29T00:30:02.436Z,23.24
2017-11-29T00:30:34.544Z,23.26
2017-11-29T00:31:06.650Z,23.24
2017-11-29T00:31:38.761Z,23.26
2017-11-29T00:32:10.874Z,23.21
2017-11-29T00:34:02.497Z,23.25
2017-11-29T00:34:34.606Z,23.25
2017-11-29T00:35:06.702Z,23.25
2017-11-29T00:36:58.334Z,23.24
2017-11-29T00:37:30.444Z,23.25
2017-11-29T00:38:02.584Z,23.28
2017-11-29T00:38:34.692Z,23.29
2017-11-29T00:39:06.779Z,23.28
2017-11-29T00:40:58.336Z,23.26
2017-11-29T00:41:30.431Z,23.26
2017-11-29T00:42:02.523Z,23.26
2017-11-29T00:42:34.635Z,23.24
2017-11-29T00:44:26.004Z,23.28
2017-11-29T00:44:58.103Z,23.22
2017-11-29T00:45:30.192Z,23.29
2017-11-29T00:46:02.302Z,23.28
2017-11-29T00:46:34.394Z,23.22
2017-11-29T00:47:06.515Z,23.32
2017-11-29T00:47:38.612Z,23.29
2017-11-29T00:48:10.716Z,23.21
2017-11-29T00:48:42.822Z,23.28
2017-11-29T00:49:14.925Z,23.28
2017-11-29T00:49:47.044Z,23.34
2017-11-29T00:51:38.844Z,23.26
2017-11-29T00:53:30.166Z,23.22
2017-11-29T00:55:21.507Z,23.25
2017-11-29T00:55:53.618Z,23.4
2017-11-29T00:56:25.721Z,23.38
2017-11-29T00:56:57.821Z,23.38
2017-11-29T00:57:29.934Z,23.38
2017-11-29T00:58:02.038Z,23.41
2017-11-29T00:59:53.510Z,23.24
2017-11-29T01:00:25.622Z,23.26
2017-11-29T01:00:57.740Z,23.4
2017-11-29T01:01:29.843Z,23.4
2017-11-29T01:02:01.939Z,23.42
2017-11-29T01:02:34.060Z,23.38
2017-11-29T01:03:06.162Z,23.32
2017-11-29T01:03:38.265Z,23.37
2017-11-29T01:04:10.385Z,23.28
2017-11-29T01:04:42.520Z,23.38
2017-11-29T01:05:14.615Z,23.28
2017-11-29T01:05:46.717Z,23.37
2017-11-29T01:06:18.838Z,23.29
2017-11-29T01:09:29.851Z,23.26
2017-11-29T01:10:01.968Z,23.29
2017-11-29T01:10:34.080Z,23.37
2017-11-29T01:11:06.186Z,23.37
2017-11-29T01:11:38.303Z,23.35
2017-11-29T01:12:10.419Z,23.29
2017-11-29T01:12:42.525Z,23.26
2017-11-29T01:13:14.620Z,23.37
2017-11-29T01:13:46.687Z,23.4
2017-11-29T01:14:18.784Z,23.38
2017-11-29T01:14:50.882Z,23.42
2017-11-29T01:15:27.629Z,23.28
2017-11-29T01:15:59.718Z,23.4
2017-11-29T01:16:31.817Z,23.38
2017-11-29T01:17:03.945Z,23.34
2017-11-29T01:18:55.520Z,23.26
2017-11-29T01:19:27.609Z,23.35
2017-11-29T01:19:59.723Z,23.37
2017-11-29T01:20:31.826Z,23.25
2017-11-29T01:22:23.444Z,23.26
2017-11-29T01:22:55.540Z,23.4
2017-11-29T01:23:27.654Z,23.44
2017-11-29T01:23:59.768Z,23.26
2017-11-29T01:24:31.857Z,23.32
2017-11-29T01:25:03.961Z,23.29
2017-11-29T01:25:36.056Z,23.4
2017-11-29T01:26:08.150Z,23.37
2017-11-29T01:27:59.708Z,23.38
2017-11-29T01:28:31.819Z,23.4
2017-11-29T01:29:03.918Z,23.4
2017-11-29T01:29:36.042Z,23.4
2017-11-29T01:30:08.153Z,23.45
2017-11-29T01:30:40.266Z,23.38
2017-11-29T01:31:12.371Z,23.38
2017-11-29T01:31:44.475Z,23.25
2017-11-29T01:32:16.594Z,23.35
2017-11-29T01:32:48.698Z,23.38
2017-11-29T01:33:20.819Z,23.28
2017-11-29T01:33:52.924Z,23.38
2017-11-29T01:34:25.032Z,23.38
2017-11-29T01:34:57.127Z,23.35
2017-11-29T01:38:08.441Z,23.29
2017-11-29T01:39:59.915Z,23.38
2017-11-29T01:41:51.532Z,23.41
2017-11-29T01:42:23.651Z,23.37
2017-11-29T01:42:55.789Z,23.38
2017-11-29T01:43:27.883Z,23.28
2017-11-29T01:43:59.991Z,23.32
2017-11-29T01:44:32.083Z,23.44
2017-11-29T01:45:04.191Z,23.4
2017-11-29T01:45:36.307Z,23.4
2017-11-29T01:47:27.961Z,23.41
2017-11-29T01:49:19.371Z,23.26
2017-11-29T01:49:51.479Z,23.45
2017-11-29T01:51:42.877Z,23.4
2017-11-29T01:52:14.999Z,23.37
2017-11-29T01:52:47.077Z,23.38
2017-11-29T01:53:19.160Z,23.38
2017-11-29T01:53:51.272Z,23.32
2017-11-29T01:54:23.365Z,23.38
2017-11-29T01:54:55.447Z,23.41
2017-11-29T01:55:27.552Z,23.41
2017-11-29T01:55:59.676Z,23.4
2017-11-29T01:56:31.761Z,23.38
2017-11-29T01:57:03.875Z,23.37
2017-11-29T01:57:35.974Z,23.4
2017-11-29T01:58:08.073Z,23.37
2017-11-29T01:58:40.182Z,23.34
2017-11-29T01:59:12.288Z,23.38
2017-11-29T01:59:44.386Z,23.44
2017-11-29T02:00:16.496Z,23.4
2017-11-29T02:00:48.580Z,23.37
2017-11-29T02:01:20.699Z,23.37
2017-11-29T02:01:52.793Z,23.34
2017-11-29T02:02:24.889Z,23.4
2017-11-29T02:02:57.003Z,23.44
2017-11-29T02:03:29.114Z,23.42
2017-11-29T02:04:01.197Z,23.47
2017-11-29T02:04:33.302Z,23.41
2017-11-29T02:05:05.409Z,23.4
2017-11-29T02:05:37.531Z,23.37
2017-11-29T02:06:09.634Z,23.42
2017-11-29T02:06:41.734Z,23.45
2017-11-29T02:07:13.837Z,23.28
2017-11-29T02:09:05.214Z,23.29
2017-11-29T02:10:56.552Z,23.28
2017-11-29T02:11:28.648Z,23.42
2017-11-29T02:13:20.048Z,23.28
2017-11-29T02:15:11.773Z,23.34
2017-11-29T02:18:34.245Z,23.28
2017-11-29T02:19:06.275Z,23.41
2017-11-29T02:19:38.337Z,23.4
2017-11-29T02:20:10.361Z,23.41
2017-11-29T02:20:42.401Z,23.38
2017-11-29T02:21:14.435Z,23.4
2017-11-29T02:21:46.551Z,23.4
2017-11-29T02:22:18.568Z,23.4
2017-11-29T02:22:51.336Z,23.41
2017-11-29T02:23:23.346Z,23.41
2017-11-29T02:23:55.393Z,23.41
2017-11-29T02:24:27.398Z,23.4
2017-11-29T02:24:59.432Z,23.38
2017-11-29T02:25:31.456Z,23.4
2017-11-29T02:26:03.497Z,23.37
2017-11-29T02:26:35.520Z,23.35
2017-11-29T02:27:07.627Z,23.34
2017-11-29T02:27:39.632Z,23.38
2017-11-29T02:28:11.640Z,23.4
2017-11-29T02:28:43.659Z,23.41
2017-11-29T02:29:15.714Z,23.4
2017-11-29T02:29:47.724Z,23.4
2017-11-29T02:30:19.708Z,23.42
2017-11-29T02:30:51.755Z,23.35
2017-11-29T02:31:23.835Z,23.35
2017-11-29T02:31:55.856Z,23.37
2017-11-29T02:32:27.896Z,23.4
2017-11-29T02:32:59.901Z,23.4
2017-11-29T02:33:31.922Z,23.4
2017-11-29T02:34:03.939Z,23.47
2017-11-29T02:34:36.065Z,23.38
2017-11-29T02:35:08.104Z,23.32
2017-11-29T02:35:40.074Z,23.38
2017-11-29T02:36:12.242Z,23.35
2017-11-29T02:36:44.262Z,23.38
2017-11-29T02:37:16.271Z,23.37
2017-11-29T02:37:48.307Z,23.37
2017-11-29T02:38:20.350Z,23.37
2017-11-29T02:38:52.368Z,23.4
2017-11-29T02:39:24.383Z,23.4
2017-11-29T02:39:56.451Z,23.35
2017-11-29T02:40:28.491Z,23.4
2017-11-29T02:41:00.554Z,23.37
2017-11-29T02:41:32.588Z,23.42
2017-11-29T02:42:04.566Z,23.4
2017-11-29T02:42:36.627Z,23.37
2017-11-29T02:43:08.687Z,23.35
2017-11-29T02:43:40.715Z,23.4
2017-11-29T02:44:12.767Z,23.37
2017-11-29T02:44:44.776Z,23.38
2017-11-29T02:45:16.797Z,23.44
2017-11-29T02:45:48.832Z,23.37
2017-11-29T02:46:20.881Z,23.35
2017-11-29T02:46:52.926Z,23.44
2017-11-29T02:47:24.946Z,23.47
2017-11-29T02:47:56.965Z,23.44
2017-11-29T02:48:28.976Z,23.44
2017-11-29T02:49:01.003Z,23.44
2017-11-29T02:49:33.009Z,23.4
2017-11-29T02:50:05.053Z,23.47
2017-11-29T02:50:37.081Z,23.45
2017-11-29T02:51:09.129Z,23.44
2017-11-29T02:51:41.249Z,23.38
2017-11-29T02:52:13.288Z,23.45
2017-11-29T02:52:45.292Z,23.45
2017-11-29T02:53:17.410Z,23.4
2017-11-29T02:53:49.464Z,23.4
2017-11-29T02:54:21.494Z,23.35
2017-11-29T02:54:53.532Z,23.44
2017-11-29T02:55:25.591Z,23.41
2017-11-29T02:55:57.605Z,23.47
2017-11-29T02:56:29.627Z,23.37
2017-11-29T02:57:01.679Z,23.41
2017-11-29T02:57:33.692Z,23.48
2017-11-29T02:58:05.724Z,23.35
2017-11-29T02:58:37.730Z,23.45
2017-11-29T02:59:09.761Z,23.41
2017-11-29T02:59:41.785Z,23.44
2017-11-29T03:00:13.805Z,23.42
2017-11-29T03:00:45.819Z,23.42
2017-11-29T03:01:17.838Z,23.45
2017-11-29T03:01:49.858Z,23.44
2017-11-29T03:02:21.829Z,23.48
2017-11-29T03:02:53.861Z,23.44
2017-11-29T03:03:25.880Z,23.42
2017-11-29T03:03:57.933Z,23.4
2017-11-29T03:04:29.946Z,23.52
2017-11-29T03:05:01.969Z,23.42
2017-11-29T03:05:33.995Z,23.45
2017-11-29T03:06:06.041Z,23.45
2017-11-29T03:06:38.058Z,23.48
2017-11-29T03:07:10.185Z,23.42
2017-11-29T03:07:42.195Z,23.47
2017-11-29T03:08:14.226Z,23.42
2017-11-29T03:08:46.254Z,23.48
2017-11-29T03:09:18.280Z,23.45
2017-11-29T03:09:50.311Z,23.42
2017-11-29T03:10:22.313Z,23.45
2017-11-29T03:10:54.322Z,23.48
2017-11-29T03:11:26.343Z,23.44
2017-11-29T03:11:58.390Z,23.44
2017-11-29T03:12:30.423Z,23.47
2017-11-29T03:13:02.461Z,23.45
2017-11-29T03:13:34.499Z,23.45
2017-11-29T03:14:06.511Z,23.44
2017-11-29T03:14:38.520Z,23.44
2017-11-29T03:15:10.540Z,23.45
2017-11-29T03:15:42.619Z,23.47
2017-11-29T03:16:14.697Z,23.5
2017-11-29T03:16:46.769Z,23.52
2017-11-29T03:17:18.866Z,23.48
2017-11-29T03:17:50.889Z,23.42
2017-11-29T03:18:22.911Z,23.45
2017-11-29T03:18:54.900Z,23.56
2017-11-29T03:19:26.961Z,23.45
2017-11-29T03:19:59.004Z,23.48
2017-11-29T03:20:31.051Z,23.48
2017-11-29T03:21:03.063Z,23.48
2017-11-29T03:21:35.103Z,23.42
2017-11-29T03:22:07.107Z,23.47
2017-11-29T03:22:39.160Z,23.45
2017-11-29T03:23:11.173Z,23.47
2017-11-29T03:23:43.188Z,23.42
2017-11-29T03:24:15.210Z,23.45
2017-11-29T03:24:47.264Z,23.45
2017-11-29T03:25:19.254Z,23.5
2017-11-29T03:25:51.389Z,23.42
2017-11-29T03:26:23.369Z,23.42
2017-11-29T03:26:55.414Z,23.45
2017-11-29T03:27:27.380Z,23.47
2017-11-29T03:27:59.374Z,23.44
2017-11-29T03:28:31.414Z,23.47
2017-11-29T03:29:03.594Z,23.44
2017-11-29T03:29:35.704Z,23.45
2017-11-29T03:30:07.745Z,23.48
2017-11-29T03:30:39.851Z,23.42
2017-11-29T03:31:11.895Z,23.5
2017-11-29T03:31:43.934Z,23.42
2017-11-29T03:32:16.063Z,23.44
2017-11-29T03:32:48.095Z,23.45
2017-11-29T03:33:20.106Z,23.52
2017-11-29T03:33:52.115Z,23.42
2017-11-29T03:34:24.170Z,23.48
2017-11-29T03:34:56.187Z,23.47
2017-11-29T03:35:28.255Z,23.44
2017-11-29T03:36:00.280Z,23.48
2017-11-29T03:36:32.316Z,23.44
2017-11-29T03:37:04.336Z,23.47
2017-11-29T03:37:36.366Z,23.45
2017-11-29T03:38:08.402Z,23.47
2017-11-29T03:38:40.441Z,23.44
2017-11-29T03:39:12.486Z,23.42
2017-11-29T03:39:44.500Z,23.44
2017-11-29T03:40:16.566Z,23.48
2017-11-29T03:40:48.617Z,23.44
2017-11-29T03:41:20.654Z,23.42
2017-11-29T03:41:52.657Z,23.47
2017-11-29T03:42:24.769Z,23.48
2017-11-29T03:42:56.815Z,23.48
2017-11-29T03:43:28.829Z,23.44
2017-11-29T03:44:00.851Z,23.44
2017-11-29T03:44:32.884Z,23.44
2017-11-29T03:45:04.926Z,23.42
2017-11-29T03:45:36.938Z,23.47
2017-11-29T03:46:08.943Z,23.41
2017-11-29T03:46:40.982Z,23.45
2017-11-29T03:47:13.003Z,23.44
2017-11-29T03:47:45.015Z,23.47
2017-11-29T03:48:17.038Z,23.42
2017-11-29T03:48:49.075Z,23.45
2017-11-29T03:49:21.088Z,23.42
2017-11-29T03:49:53.115Z,23.44
2017-11-29T03:50:25.148Z,23.47
2017-11-29T03:50:57.222Z,23.47
2017-11-29T03:51:29.248Z,23.45
2017-11-29T03:52:01.247Z,23.42
2017-11-29T03:52:33.255Z,23.47
2017-11-29T03:53:05.383Z,23.45
2017-11-29T03:53:37.402Z,23.45
2017-11-29T03:54:09.421Z,23.41
2017-11-29T03:54:41.422Z,23.44
2017-11-29T03:55:13.439Z,23.38
2017-11-29T03:55:49.197Z,23.41
2017-11-29T03:56:21.232Z,23.35
2017-11-29T03:56:53.273Z,23.4
2017-11-29T03:57:25.311Z,23.41
2017-11-29T03:57:57.310Z,23.42
2017-11-29T03:58:29.422Z,23.47
2017-11-29T03:59:01.430Z,23.44
2017-11-29T03:59:33.435Z,23.42
2017-11-29T04:00:05.443Z,23.45
2017-11-29T04:00:37.497Z,23.45
2017-11-29T04:01:09.514Z,23.47
2017-11-29T04:01:41.541Z,23.47
2017-11-29T04:02:13.565Z,23.44
2017-11-29T04:02:45.742Z,23.41
2017-11-29T04:03:17.704Z,23.44
2017-11-29T04:03:49.763Z,23.4
2017-11-29T04:04:21.834Z,23.41
2017-11-29T04:04:53.879Z,23.44
2017-11-29T04:05:25.861Z,23.4
2017-11-29T04:05:57.894Z,23.4
2017-11-29T04:06:29.923Z,23.38
2017-11-29T04:07:01.932Z,23.38
2017-11-29T04:07:33.966Z,23.34
2017-11-29T04:08:05.992Z,23.42
2017-11-29T04:08:37.998Z,23.41
2017-11-29T04:09:10.038Z,23.32
2017-11-29T04:09:42.056Z,23.44
2017-11-29T04:10:14.089Z,23.35
2017-11-29T04:10:46.119Z,23.38
2017-11-29T04:11:18.158Z,23.44
2017-11-29T04:11:50.165Z,23.38
2017-11-29T04:12:22.191Z,23.34
2017-11-29T04:12:54.230Z,23.41
2017-11-29T04:13:26.279Z,23.29
2017-11-29T04:13:58.313Z,23.32
2017-11-29T04:14:30.338Z,23.34
2017-11-29T04:15:02.523Z,23.34
2017-11-29T04:15:35.085Z,23.42
2017-11-29T04:16:07.089Z,23.4
2017-11-29T04:16:39.141Z,23.38
2017-11-29T04:17:11.152Z,23.41
2017-11-29T04:17:43.167Z,23.35
2017-11-29T04:18:15.172Z,23.41
2017-11-29T04:18:47.219Z,23.4
2017-11-29T04:19:19.224Z,23.4
2017-11-29T04:19:51.263Z,23.32
2017-11-29T04:20:23.272Z,23.41
2017-11-29T04:20:55.281Z,23.4
2017-11-29T04:21:27.314Z,23.34
2017-11-29T04:21:59.353Z,23.41
2017-11-29T04:22:31.367Z,23.4
2017-11-29T04:23:03.514Z,23.29
2017-11-29T04:23:35.507Z,23.37
2017-11-29T04:24:07.531Z,23.44
2017-11-29T04:24:39.555Z,23.41
2017-11-29T04:25:11.585Z,23.37
2017-11-29T04:25:43.597Z,23.38
2017-11-29T04:26:15.610Z,23.41
2017-11-29T04:26:47.630Z,23.34
2017-11-29T04:27:19.617Z,23.37
2017-11-29T04:27:51.645Z,23.35
2017-11-29T04:28:23.828Z,23.37
2017-11-29T04:28:55.968Z,23.42
2017-11-29T04:29:27.957Z,23.35
2017-11-29T04:29:59.976Z,23.38
2017-11-29T04:30:32.011Z,23.4
2017-11-29T04:31:04.036Z,23.45
2017-11-29T04:31:36.086Z,23.41
2017-11-29T04:32:08.120Z,23.37
2017-11-29T04:32:40.762Z,23.42
2017-11-29T04:33:12.812Z,23.37
2017-11-29T04:33:44.803Z,23.34
2017-11-29T04:34:16.832Z,23.38
2017-11-29T04:34:48.859Z,23.37
2017-11-29T04:35:20.911Z,23.44
2017-11-29T04:35:52.954Z,23.41
2017-11-29T04:36:25.002Z,23.44
2017-11-29T04:36:56.982Z,23.45
2017-11-29T04:37:28.970Z,23.4
2017-11-29T04:38:00.994Z,23.37
2017-11-29T04:38:33.027Z,23.35
2017-11-29T04:39:05.076Z,23.4
2017-11-29T04:39:37.111Z,23.4
2017-11-29T04:40:09.122Z,23.37
2017-11-29T04:40:41.277Z,23.35
2017-11-29T04:41:13.296Z,23.4
2017-11-29T04:41:45.316Z,23.37
2017-11-29T04:42:17.305Z,23.37
2017-11-29T04:42:49.338Z,23.34
2017-11-29T04:43:21.358Z,23.4
2017-11-29T04:43:53.437Z,23.37
2017-11-29T04:44:25.479Z,23.37
2017-11-29T04:44:58.231Z,23.38
2017-11-29T04:45:30.251Z,23.38
2017-11-29T04:46:02.259Z,23.35
2017-11-29T04:46:34.301Z,23.35
2017-11-29T04:47:06.387Z,23.44
2017-11-29T04:47:38.401Z,23.4
2017-11-29T04:48:10.450Z,23.38
2017-11-29T04:48:42.500Z,23.41
2017-11-29T04:49:14.548Z,23.37
2017-11-29T04:49:46.519Z,23.4
2017-11-29T04:50:18.549Z,23.41
2017-11-29T04:50:50.646Z,23.4
2017-11-29T04:51:22.666Z,23.37
2017-11-29T04:51:54.668Z,23.35
2017-11-29T04:52:26.682Z,23.37
2017-11-29T04:52:58.704Z,23.42
2017-11-29T04:53:30.748Z,23.42
2017-11-29T04:54:02.765Z,23.4
2017-11-29T04:54:34.777Z,23.28
2017-11-29T04:55:06.803Z,23.38
2017-11-29T04:55:38.860Z,23.45
2017-11-29T04:56:10.896Z,23.4
2017-11-29T04:56:42.940Z,23.34
2017-11-29T04:57:14.971Z,23.35
2017-11-29T04:57:46.982Z,23.37
2017-11-29T04:58:19.015Z,23.38
2017-11-29T04:58:51.052Z,23.44
2017-11-29T04:59:23.081Z,23.37
2017-11-29T04:59:55.139Z,23.41
2017-11-29T05:00:27.290Z,23.25
2017-11-29T05:00:59.242Z,23.37
2017-11-29T05:01:31.247Z,23.28
2017-11-29T05:02:03.296Z,23.35
2017-11-29T05:02:35.846Z,23.35
2017-11-29T05:03:07.879Z,23.37
2017-11-29T05:03:39.914Z,23.32
2017-11-29T05:04:11.929Z,23.38
2017-11-29T05:04:43.980Z,23.37
2017-11-29T05:05:15.993Z,23.35
2017-11-29T05:05:48.036Z,23.35
2017-11-29T05:06:20.152Z,23.32
2017-11-29T05:06:52.159Z,23.26
2017-11-29T05:07:24.167Z,23.38
2017-11-29T05:07:56.214Z,23.37
2017-11-29T05:08:28.290Z,23.38
2017-11-29T05:09:00.275Z,23.41
2017-11-29T05:09:32.341Z,23.37
2017-11-29T05:10:04.413Z,23.38
2017-11-29T05:10:36.443Z,23.41
2017-11-29T05:11:10.430Z,23.26
2017-11-29T05:11:42.445Z,23.38
2017-11-29T05:12:14.461Z,23.4
2017-11-29T05:12:46.496Z,23.28
2017-11-29T05:13:18.524Z,23.29
2017-11-29T05:13:50.555Z,23.41
2017-11-29T05:14:22.572Z,23.32
2017-11-29T05:14:54.584Z,23.35
2017-11-29T05:15:26.623Z,23.37
2017-11-29T05:15:58.662Z,23.38
2017-11-29T05:16:30.667Z,23.32
2017-11-29T05:17:02.698Z,23.34
2017-11-29T05:17:34.736Z,23.37
2017-11-29T05:18:06.772Z,23.38
2017-11-29T05:18:38.824Z,23.34
2017-11-29T05:19:10.888Z,23.28
2017-11-29T05:19:42.960Z,23.34
2017-11-29T05:20:15.049Z,23.35
2017-11-29T05:20:47.064Z,23.41
2017-11-29T05:21:19.100Z,23.4
2017-11-29T05:21:51.105Z,23.34
2017-11-29T05:22:23.135Z,23.38
2017-11-29T05:22:55.181Z,23.26
2017-11-29T05:23:27.313Z,23.34
2017-11-29T05:23:59.330Z,23.34
2017-11-29T05:24:31.342Z,23.29
2017-11-29T05:25:03.370Z,23.4
2017-11-29T05:25:35.409Z,23.4
2017-11-29T05:26:07.417Z,23.38
2017-11-29T05:26:39.458Z,23.38
2017-11-29T05:27:11.491Z,23.38
2017-11-29T05:27:43.564Z,23.26
2017-11-29T05:28:15.577Z,23.38
2017-11-29T05:28:47.652Z,23.38
2017-11-29T05:29:19.757Z,23.42
2017-11-29T05:29:51.763Z,23.26
2017-11-29T05:30:23.786Z,23.38
2017-11-29T05:30:55.793Z,23.29
2017-11-29T05:31:27.820Z,23.38
2017-11-29T05:31:59.844Z,23.41
2017-11-29T05:32:31.859Z,23.38
2017-11-29T05:33:03.862Z,23.28
2017-11-29T05:33:35.844Z,23.41
2017-11-29T05:34:07.910Z,23.38
2017-11-29T05:34:39.936Z,23.38
2017-11-29T05:35:11.992Z,23.29
2017-11-29T05:35:44.008Z,23.38
2017-11-29T05:36:16.040Z,23.35
2017-11-29T05:36:48.025Z,23.35
2017-11-29T05:37:20.048Z,23.38
2017-11-29T05:37:52.123Z,23.4
2017-11-29T05:38:24.131Z,23.42
2017-11-29T05:38:56.165Z,23.38
2017-11-29T05:39:28.212Z,23.38
2017-11-29T05:40:00.238Z,23.37
2017-11-29T05:40:32.254Z,23.38
2017-11-29T05:41:04.269Z,23.35
2017-11-29T05:41:36.334Z,23.37
2017-11-29T05:42:08.327Z,23.37
2017-11-29T05:42:40.342Z,23.4
2017-11-29T05:43:12.351Z,23.38
2017-11-29T05:43:44.385Z,23.37
2017-11-29T05:44:16.485Z,23.4
2017-11-29T05:44:48.510Z,23.38
2017-11-29T05:45:20.530Z,23.34
2017-11-29T05:45:52.558Z,23.37
2017-11-29T05:46:24.653Z,23.38
2017-11-29T05:46:56.678Z,23.35
2017-11-29T05:47:28.710Z,23.35
2017-11-29T05:48:00.732Z,23.38
2017-11-29T05:48:32.768Z,23.41
2017-11-29T05:49:04.795Z,23.41
2017-11-29T05:49:36.829Z,23.37
2017-11-29T05:50:08.850Z,23.38
2017-11-29T05:50:40.887Z,23.4
2017-11-29T05:51:12.903Z,23.37
2017-11-29T05:51:44.926Z,23.37
2017-11-29T05:52:16.939Z,23.44
2017-11-29T05:52:48.967Z,23.4
2017-11-29T05:53:20.967Z,23.38
2017-11-29T05:53:53.031Z,23.38
2017-11-29T05:54:25.046Z,23.38
2017-11-29T05:54:57.070Z,23.34
2017-11-29T05:55:29.032Z,23.41
2017-11-29T05:56:01.056Z,23.38
2017-11-29T05:56:33.085Z,23.41
2017-11-29T05:57:05.291Z,23.38
2017-11-29T05:57:37.366Z,23.37
2017-11-29T05:58:09.419Z,23.34
2017-11-29T05:58:41.414Z,23.41
2017-11-29T05:59:13.433Z,23.41
2017-11-29T05:59:45.458Z,23.38
2017-11-29T06:00:17.479Z,23.4
2017-11-29T06:00:49.516Z,23.4
2017-11-29T06:01:21.578Z,23.35
2017-11-29T06:01:53.676Z,23.44
2017-11-29T06:02:25.681Z,23.42
2017-11-29T06:02:57.698Z,23.4
2017-11-29T06:03:29.740Z,23.37
2017-11-29T06:04:01.757Z,23.37
2017-11-29T06:04:33.778Z,23.34
2017-11-29T06:05:05.862Z,23.41
2017-11-29T06:05:37.850Z,23.38
2017-11-29T06:06:09.884Z,23.4
2017-11-29T06:06:41.917Z,23.38
2017-11-29T06:07:14.070Z,23.37
2017-11-29T06:07:46.265Z,23.38
2017-11-29T06:08:19.186Z,23.38
2017-11-29T06:08:51.288Z,23.41
2017-11-29T06:09:23.337Z,23.37
2017-11-29T06:09:55.380Z,23.37
2017-11-29T06:10:27.410Z,23.37
2017-11-29T06:10:59.510Z,23.37
2017-11-29T06:11:31.503Z,23.4
2017-11-29T06:12:03.563Z,23.41
2017-11-29T06:12:35.582Z,23.38
2017-11-29T06:13:11.530Z,23.38
2017-11-29T06:13:43.554Z,23.38
2017-11-29T06:14:15.619Z,23.35
2017-11-29T06:14:47.701Z,23.29
2017-11-29T06:15:19.724Z,23.35
2017-11-29T06:15:51.728Z,23.34
2017-11-29T06:16:23.734Z,23.4
2017-11-29T06:16:55.860Z,23.41
2017-11-29T06:17:27.891Z,23.38
2017-11-29T06:17:59.896Z,23.37
2017-11-29T06:18:31.924Z,23.4
2017-11-29T06:19:04.058Z,23.29
2017-11-29T06:19:36.253Z,23.47
2017-11-29T06:20:08.288Z,23.45
2017-11-29T06:20:40.351Z,23.38
2017-11-29T06:21:12.390Z,23.38
2017-11-29T06:21:44.425Z,23.42
2017-11-29T06:22:16.467Z,23.4
2017-11-29T06:22:48.483Z,23.37
2017-11-29T06:23:20.560Z,23.42
2017-11-29T06:23:52.622Z,23.35
2017-11-29T06:24:24.638Z,23.41
2017-11-29T06:24:56.728Z,23.41
2017-11-29T06:25:28.918Z,23.42
2017-11-29T06:26:00.929Z,23.4
2017-11-29T06:26:32.959Z,23.4
2017-11-29T06:27:05.912Z,23.44
2017-11-29T06:27:37.935Z,23.37
2017-11-29T06:28:09.912Z,23.38
2017-11-29T06:28:42.051Z,23.41
2017-11-29T06:29:14.091Z,23.38
2017-11-29T06:29:46.132Z,23.37
2017-11-29T06:30:18.123Z,23.42
2017-11-29T06:30:50.158Z,23.38
2017-11-29T06:31:22.208Z,23.29
2017-11-29T06:31:54.242Z,23.38
2017-11-29T06:32:26.282Z,23.41
2017-11-29T06:32:58.292Z,23.44
2017-11-29T06:33:30.309Z,23.42
2017-11-29T06:34:02.339Z,23.37
2017-11-29T06:34:34.421Z,23.32
2017-11-29T06:35:06.371Z,23.32
2017-11-29T06:35:38.488Z,23.38
2017-11-29T06:36:10.552Z,23.37
2017-11-29T06:36:42.618Z,23.4
2017-11-29T06:37:14.646Z,23.4
2017-11-29T06:37:46.670Z,23.37
2017-11-29T06:38:18.695Z,23.38
2017-11-29T06:38:50.717Z,23.28
2017-11-29T06:39:23.321Z,23.35
2017-11-29T06:39:55.363Z,23.32
2017-11-29T06:40:27.405Z,23.41
2017-11-29T06:40:59.473Z,23.38
2017-11-29T06:41:31.488Z,23.4
2017-11-29T06:42:03.483Z,23.42
2017-11-29T06:42:35.503Z,23.44
2017-11-29T06:43:07.551Z,23.41
2017-11-29T06:43:39.569Z,23.41
2017-11-29T06:44:11.607Z,23.34
2017-11-29T06:44:43.654Z,23.29
2017-11-29T06:45:15.682Z,23.41
2017-11-29T06:45:50.319Z,23.44
2017-11-29T06:46:22.357Z,23.42
2017-11-29T06:46:54.383Z,23.45
2017-11-29T06:47:26.577Z,23.35
2017-11-29T06:47:58.691Z,23.34
2017-11-29T06:48:30.710Z,23.4
2017-11-29T06:49:02.704Z,23.4
2017-11-29T06:49:34.771Z,23.41
2017-11-29T06:50:06.796Z,23.34
2017-11-29T06:50:38.778Z,23.35
2017-11-29T06:51:11.575Z,23.28
2017-11-29T06:51:43.583Z,23.37
2017-11-29T06:52:15.613Z,23.44
2017-11-29T06:52:47.645Z,23.38
2017-11-29T06:53:19.678Z,23.4
2017-11-29T06:53:51.712Z,23.47
2017-11-29T06:54:23.756Z,23.42
2017-11-29T06:54:55.804Z,23.29
2017-11-29T06:55:27.851Z,23.37
2017-11-29T06:55:59.963Z,23.38
